Time;durP1;ratioP1;P1;durP2;ratioP2;P2;SDS_P1;SDS_P2;PMS_P1;PMS_P2;Temp;Humidity;BMP_temperature;BMP_pressure;BME280_temperature;BME280_humidity;BME280_pressure;Samples;Min_cycle;Max_cycle;Signal;HPM_P1;HPM_P2
2023/09/30 00:01:23;;;;;;;12.20;5.72;;;13.40;99.90;;;;;;4968134;28;20222;-77
2023/09/30 00:03:51;;;;;;;17.65;7.13;;;13.40;99.90;;;;;;4968514;28;20713;-80
2023/09/30 00:06:18;;;;;;;14.48;5.97;;;13.30;99.90;;;;;;4973327;28;20663;-78
2023/09/30 00:08:45;;;;;;;14.07;6.00;;;13.30;99.90;;;;;;4970296;28;20223;-79
2023/09/30 00:11:13;;;;;;;24.77;8.30;;;13.30;99.90;;;;;;4975160;28;20292;-79
2023/09/30 00:13:40;;;;;;;10.15;5.72;;;13.30;99.90;;;;;;4975076;28;20641;-78
2023/09/30 00:16:07;;;;;;;17.83;5.80;;;13.30;99.90;;;;;;4977166;28;20232;-78
2023/09/30 00:18:34;;;;;;;17.40;5.85;;;13.30;99.90;;;;;;4971099;28;20213;-79
2023/09/30 00:21:02;;;;;;;21.95;6.95;;;13.30;99.90;;;;;;4976161;28;20294;-78
2023/09/30 00:23:29;;;;;;;20.17;6.57;;;13.30;99.90;;;;;;4963796;28;20246;-79
2023/09/30 00:25:56;;;;;;;11.38;5.85;;;13.30;99.90;;;;;;4969141;28;20746;-79
2023/09/30 00:28:23;;;;;;;16.88;6.00;;;13.20;99.90;;;;;;4969919;28;20308;-79
2023/09/30 00:30:51;;;;;;;17.25;6.70;;;13.20;99.90;;;;;;4975055;28;20725;-77
2023/09/30 00:33:18;;;;;;;18.80;7.20;;;13.20;99.90;;;;;;4968843;28;20199;-79
2023/09/30 00:35:46;;;;;;;14.85;6.45;;;13.20;99.90;;;;;;4984055;28;20240;-79
2023/09/30 00:38:14;;;;;;;16.60;6.07;;;13.10;99.90;;;;;;4989387;28;20208;-79
2023/09/30 00:40:48;;;;;;;29.25;7.10;;;13.10;99.90;;;;;;4978013;28;20236;-77
2023/09/30 00:43:19;;;;;;;12.00;4.60;;;13.10;99.90;;;;;;4982454;28;20201;-79
2023/09/30 00:45:46;;;;;;;17.83;5.75;;;13.20;99.90;;;;;;4991771;28;20267;-78
2023/09/30 00:48:13;;;;;;;18.05;6.75;;;13.20;99.90;;;;;;4965825;28;20272;-78
2023/09/30 00:50:42;;;;;;;21.88;7.25;;;13.20;99.90;;;;;;4973530;28;20235;-78
2023/09/30 00:53:10;;;;;;;16.88;6.63;;;13.20;99.90;;;;;;4963372;28;20233;-80
2023/09/30 00:55:39;;;;;;;13.93;4.68;;;13.20;99.90;;;;;;4975127;28;20660;-78
2023/09/30 00:58:06;;;;;;;13.73;6.53;;;13.10;99.90;;;;;;4976027;28;20227;-78
2023/09/30 01:00:33;;;;;;;24.98;7.05;;;13.10;99.90;;;;;;4975764;28;20247;-78
2023/09/30 01:03:03;;;;;;;19.75;6.93;;;13.10;99.90;;;;;;4965210;28;20264;-78
2023/09/30 01:05:32;;;;;;;14.95;6.57;;;13.10;99.90;;;;;;4972957;28;20272;-79
2023/09/30 01:07:59;;;;;;;13.40;5.63;;;13.10;99.90;;;;;;4971766;28;20306;-78
2023/09/30 01:10:27;;;;;;;15.18;6.38;;;13.10;99.90;;;;;;4981658;28;20211;-77
2023/09/30 01:12:55;;;;;;;24.17;8.10;;;13.10;99.90;;;;;;4975140;28;20656;-79
2023/09/30 01:15:23;;;;;;;15.30;5.97;;;13.10;99.90;;;;;;4967099;28;20611;-78
2023/09/30 01:17:50;;;;;;;12.95;7.70;;;13.00;99.90;;;;;;4970491;28;20310;-78
2023/09/30 01:20:22;;;;;;;21.95;5.90;;;13.00;99.90;;;;;;4968349;28;20212;-78
2023/09/30 01:22:50;;;;;;;20.58;6.07;;;13.00;99.90;;;;;;4973459;28;20693;-78
2023/09/30 01:25:17;;;;;;;17.52;6.35;;;13.00;99.90;;;;;;4972454;28;20198;-79
2023/09/30 01:27:44;;;;;;;16.67;5.47;;;13.00;99.90;;;;;;4974699;28;20579;-79
2023/09/30 01:30:13;;;;;;;11.10;5.70;;;13.00;99.90;;;;;;4971301;28;20632;-78
2023/09/30 01:32:40;;;;;;;21.55;7.60;;;13.10;99.90;;;;;;4975578;28;20259;-78
2023/09/30 01:35:08;;;;;;;13.90;6.60;;;13.10;99.90;;;;;;4969106;28;20303;-78
2023/09/30 01:37:35;;;;;;;18.48;7.05;;;13.10;99.90;;;;;;4965047;28;20258;-80
2023/09/30 01:40:07;;;;;;;12.80;6.30;;;13.10;99.90;;;;;;4974850;28;20195;-79
2023/09/30 01:42:34;;;;;;;15.73;6.35;;;13.10;99.90;;;;;;4974778;28;20200;-80
2023/09/30 01:45:01;;;;;;;19.02;7.35;;;13.10;99.90;;;;;;4973436;28;20228;-79
2023/09/30 01:47:29;;;;;;;12.90;6.25;;;13.00;99.90;;;;;;4972052;28;20227;-79
2023/09/30 01:49:57;;;;;;;16.80;6.57;;;13.00;99.90;;;;;;4963862;28;20341;-78
2023/09/30 01:52:24;;;;;;;16.17;7.95;;;13.00;99.90;;;;;;4972427;28;20647;-78
2023/09/30 01:54:51;;;;;;;17.08;6.95;;;13.00;99.90;;;;;;4962313;28;20347;-78
2023/09/30 01:57:22;;;;;;;19.20;6.65;;;13.00;99.90;;;;;;4973456;28;20231;-78
2023/09/30 01:59:49;;;;;;;18.67;6.05;;;13.00;99.90;;;;;;4965608;28;20278;-78
2023/09/30 02:02:17;;;;;;;17.02;7.85;;;12.90;99.90;;;;;;4970029;28;20704;-77
2023/09/30 02:04:45;;;;;;;13.70;6.45;;;12.80;99.90;;;;;;4964442;28;20203;-79
2023/09/30 02:07:12;;;;;;;15.52;6.55;;;12.90;99.90;;;;;;4969865;28;20311;-79
2023/09/30 02:09:40;;;;;;;16.38;5.78;;;12.80;99.90;;;;;;4975237;28;20218;-79
2023/09/30 02:12:08;;;;;;;23.73;6.93;;;12.70;99.90;;;;;;4974837;28;20199;-78
2023/09/30 02:14:37;;;;;;;14.40;6.28;;;12.80;99.90;;;;;;4973880;28;20558;-78
2023/09/30 02:17:04;;;;;;;10.20;5.97;;;12.70;99.90;;;;;;4967252;28;20230;-79
2023/09/30 02:19:33;;;;;;;12.77;7.18;;;12.70;99.90;;;;;;4971102;28;20216;-77
2023/09/30 02:22:00;;;;;;;26.10;8.13;;;12.70;99.90;;;;;;4963460;28;20666;-77
2023/09/30 02:24:33;;;;;;;17.17;7.50;;;12.60;99.90;;;;;;4973315;28;20202;-77
2023/09/30 02:27:00;;;;;;;19.10;7.70;;;12.60;99.90;;;;;;4972693;28;20236;-78
2023/09/30 02:29:27;;;;;;;12.85;7.10;;;12.60;99.90;;;;;;4973342;28;20264;-79
2023/09/30 02:31:55;;;;;;;24.45;7.65;;;12.60;99.90;;;;;;4966561;28;20203;-79
2023/09/30 02:34:23;;;;;;;17.42;6.60;;;12.60;99.90;;;;;;4966390;28;20208;-79
2023/09/30 02:36:51;;;;;;;21.60;8.15;;;12.60;99.90;;;;;;4971996;28;20254;-78
2023/09/30 02:39:19;;;;;;;22.13;8.50;;;12.70;99.90;;;;;;4973677;28;20516;-78
2023/09/30 02:41:46;;;;;;;19.95;8.38;;;12.70;99.90;;;;;;4975631;28;20209;-78
2023/09/30 02:44:14;;;;;;;13.13;6.03;;;12.70;99.90;;;;;;4973919;28;20243;-78
2023/09/30 02:46:41;;;;;;;15.98;7.22;;;12.70;99.90;;;;;;4974224;28;20317;-78
2023/09/30 02:49:09;;;;;;;18.63;6.93;;;12.70;99.90;;;;;;4973486;28;20310;-78
2023/09/30 02:51:36;;;;;;;22.95;9.52;;;12.70;99.90;;;;;;4974217;28;20568;-82
2023/09/30 02:54:04;;;;;;;14.98;7.18;;;12.80;99.90;;;;;;4964661;28;20287;-79
2023/09/30 02:56:31;;;;;;;20.65;7.43;;;12.80;99.90;;;;;;4969758;28;20591;-78
2023/09/30 02:58:59;;;;;;;24.27;10.43;;;12.80;99.90;;;;;;4971830;28;20294;-79
2023/09/30 03:01:26;;;;;;;20.80;7.93;;;12.80;99.90;;;;;;4974355;28;20633;-79
2023/09/30 03:03:53;;;;;;;19.55;6.30;;;12.80;99.90;;;;;;4967822;28;20198;-77
2023/09/30 03:06:21;;;;;;;17.20;7.07;;;12.80;99.90;;;;;;4973273;28;20719;-79
2023/09/30 03:08:48;;;;;;;28.05;7.22;;;12.80;99.90;;;;;;4973411;28;20222;-79
2023/09/30 03:11:15;;;;;;;15.05;7.32;;;12.90;99.90;;;;;;4973933;28;20212;-77
2023/09/30 03:13:43;;;;;;;19.63;8.38;;;12.90;99.90;;;;;;4973217;28;20208;-79
2023/09/30 03:16:11;;;;;;;17.33;6.97;;;12.90;99.90;;;;;;4972433;28;20284;-78
2023/09/30 03:18:38;;;;;;;12.80;6.22;;;12.80;99.90;;;;;;4974091;28;20288;-78
2023/09/30 03:21:15;;;;;;;15.60;7.00;;;12.90;99.90;;;;;;4973325;28;20298;-77
2023/09/30 03:23:44;;;;;;;16.13;6.55;;;12.90;99.90;;;;;;4970078;28;20211;-77
2023/09/30 03:26:11;;;;;;;19.13;7.90;;;12.80;99.90;;;;;;4977901;28;20235;-78
2023/09/30 03:28:38;;;;;;;22.48;6.32;;;12.80;99.90;;;;;;4977398;28;20269;-79
2023/09/30 03:31:05;;;;;;;17.40;5.63;;;12.80;99.90;;;;;;4977311;28;20562;-80
2023/09/30 03:33:33;;;;;;;17.63;7.50;;;12.80;99.90;;;;;;4972001;28;20211;-80
2023/09/30 03:36:00;;;;;;;19.08;7.07;;;12.80;99.90;;;;;;4970830;28;20312;-79
2023/09/30 03:38:27;;;;;;;16.17;6.32;;;12.80;99.90;;;;;;4973279;28;20295;-79
2023/09/30 03:40:57;;;;;;;21.83;7.63;;;12.90;99.90;;;;;;4973948;28;20291;-81
2023/09/30 03:43:24;;;;;;;12.57;6.40;;;12.80;99.90;;;;;;4967728;28;20631;-80
2023/09/30 03:45:53;;;;;;;18.08;7.38;;;12.90;99.90;;;;;;4964838;28;20210;-80
2023/09/30 03:48:20;;;;;;;21.83;8.20;;;12.90;99.90;;;;;;4972519;28;20559;-79
2023/09/30 03:50:48;;;;;;;20.13;6.78;;;12.90;99.90;;;;;;4972412;28;20689;-79
2023/09/30 03:53:15;;;;;;;18.00;7.72;;;12.90;99.90;;;;;;4964891;28;20209;-80
2023/09/30 03:55:42;;;;;;;15.38;6.78;;;12.90;99.90;;;;;;4967432;28;20214;-80
2023/09/30 03:58:10;;;;;;;17.73;8.13;;;12.80;99.90;;;;;;4961480;28;20293;-80
2023/09/30 04:00:37;;;;;;;21.40;8.50;;;12.90;99.90;;;;;;4966257;28;20712;-79
2023/09/30 04:03:04;;;;;;;20.58;6.95;;;12.80;99.90;;;;;;4972381;28;20206;-79
2023/09/30 04:05:36;;;;;;;14.38;7.00;;;12.80;99.90;;;;;;4972647;28;20254;-80
2023/09/30 04:08:04;;;;;;;16.23;6.65;;;12.90;99.90;;;;;;4969822;28;20215;-79
2023/09/30 04:10:31;;;;;;;13.63;7.00;;;12.80;99.90;;;;;;4955993;28;20270;-79
2023/09/30 04:12:59;;;;;;;16.33;8.10;;;12.80;99.90;;;;;;4964014;28;20230;-80
2023/09/30 04:15:37;;;;;;;18.17;6.65;;;12.80;99.90;;;;;;4969880;28;20208;-78
2023/09/30 04:18:05;;;;;;;18.58;8.38;;;12.80;99.90;;;;;;4968892;28;20216;-79
2023/09/30 04:20:33;;;;;;;19.95;8.52;;;12.80;99.90;;;;;;4966471;28;20207;-80
2023/09/30 04:23:02;;;;;;;16.92;7.40;;;12.80;99.90;;;;;;4969274;28;20517;-79
2023/09/30 04:25:30;;;;;;;16.52;7.50;;;12.90;99.90;;;;;;4972578;28;20315;-79
2023/09/30 04:27:57;;;;;;;22.70;9.70;;;12.80;99.90;;;;;;4971147;28;20260;-79
2023/09/30 04:30:27;;;;;;;15.75;7.60;;;12.90;99.90;;;;;;4974674;28;20226;-78
2023/09/30 04:32:56;;;;;;;22.27;9.90;;;12.90;99.90;;;;;;4966055;28;20673;-78
2023/09/30 04:35:26;;;;;;;11.65;6.60;;;12.90;99.90;;;;;;4967080;28;20625;-78
2023/09/30 04:37:53;;;;;;;14.45;6.32;;;12.90;99.90;;;;;;4961803;28;20251;-78
2023/09/30 04:40:20;;;;;;;15.07;6.85;;;12.90;99.90;;;;;;4969345;28;20211;-77
2023/09/30 04:42:49;;;;;;;10.90;6.30;;;12.90;99.90;;;;;;4964754;28;20617;-78
2023/09/30 04:45:19;;;;;;;15.52;6.90;;;12.90;99.90;;;;;;4964789;28;20286;-79
2023/09/30 04:47:48;;;;;;;18.13;8.15;;;12.90;99.90;;;;;;4964839;28;20683;-78
2023/09/30 04:50:17;;;;;;;15.48;6.20;;;12.90;99.90;;;;;;4963105;28;20714;-78
2023/09/30 04:52:45;;;;;;;16.67;6.60;;;12.90;99.90;;;;;;4971387;28;20567;-79
2023/09/30 04:55:15;;;;;;;17.92;7.43;;;12.90;99.90;;;;;;4971922;28;20218;-79
2023/09/30 04:57:44;;;;;;;15.20;6.95;;;12.90;99.90;;;;;;4975934;28;20230;-79
2023/09/30 05:00:13;;;;;;;17.60;7.93;;;13.00;99.90;;;;;;4975780;28;20213;-79
2023/09/30 05:02:40;;;;;;;19.13;7.38;;;13.00;99.90;;;;;;4960087;28;20222;-79
2023/09/30 05:05:08;;;;;;;12.25;6.07;;;13.00;99.90;;;;;;4966944;28;20250;-78
2023/09/30 05:07:36;;;;;;;12.48;7.22;;;13.00;99.90;;;;;;4967156;28;20349;-79
2023/09/30 05:10:05;;;;;;;17.83;7.05;;;13.00;99.90;;;;;;4975520;28;20317;-79
2023/09/30 05:12:32;;;;;;;17.80;6.40;;;13.00;99.90;;;;;;4974088;28;20242;-79
2023/09/30 05:15:00;;;;;;;18.40;7.68;;;13.00;99.90;;;;;;4973860;28;20207;-78
2023/09/30 05:17:28;;;;;;;23.75;8.63;;;13.00;99.90;;;;;;4974184;28;20227;-74
2023/09/30 05:19:55;;;;;;;23.58;8.00;;;13.10;99.90;;;;;;4969357;28;20227;-77
2023/09/30 05:22:24;;;;;;;16.40;6.88;;;13.10;99.90;;;;;;4976754;28;20202;-77
2023/09/30 05:24:53;;;;;;;17.58;6.72;;;13.10;99.90;;;;;;4974958;28;20211;-76
2023/09/30 05:27:23;;;;;;;18.45;7.38;;;13.00;99.90;;;;;;4974999;28;20587;-80
2023/09/30 05:29:58;;;;;;;21.50;7.45;;;13.00;99.90;;;;;;4974276;28;20227;-78
2023/09/30 05:32:26;;;;;;;12.90;6.53;;;13.00;99.90;;;;;;4973254;28;20251;-75
2023/09/30 05:34:54;;;;;;;13.88;6.57;;;13.00;99.90;;;;;;4970176;28;20213;-76
2023/09/30 05:37:22;;;;;;;18.58;6.75;;;13.10;99.90;;;;;;4970633;28;20700;-75
2023/09/30 05:39:49;;;;;;;15.07;6.40;;;13.00;99.90;;;;;;4968796;28;20555;-77
2023/09/30 05:42:18;;;;;;;13.07;6.18;;;13.00;99.90;;;;;;4970703;28;20203;-77
2023/09/30 05:44:45;;;;;;;12.07;5.35;;;13.00;99.90;;;;;;4974308;28;20223;-76
2023/09/30 05:47:13;;;;;;;17.00;8.07;;;13.00;99.90;;;;;;4975144;28;20303;-77
2023/09/30 05:49:41;;;;;;;17.60;6.95;;;13.00;99.90;;;;;;4972271;28;20584;-81
